Arbon, ID

3:57 PM MDT on September 30, 2014 (GMT -0600)
RAWS SCOUT MOUNTAIN ID US | Change Station
CLOSE
Current Station
Personal Weather Station
Location: McCammon, ID
Elevation: 5695 ft
Nearby Weather Stations

Elev 5695 ft 42.70 °N, 112.36 °W | Updated 54 minutes ago

Mostly Cloudy
Mostly Cloudy
45 °F
Feels Like 43 °F
N
4
Wind Variable Wind from SW
Gusts 15.0 mph

Today
High -- | Low -- °F
--% Chance of Precip.
Yesterday
High -- | Low -- °F
Precip. -- in
7:26 AM 7:13 PM
Waxing Crescent, 40% visible
Pressure 29.86 in
Visibility 10.0 miles
Clouds Scattered Clouds 2200 ft
Mostly Cloudy 3500 ft
Mostly Cloudy 10000 ft
Windchill 43 °F
Dew Point 42 °F
Humidity 90%
Rainfall 0.46 in
Snow Depth 0 in , 0 in , 0 in
UV 3 out of 12
Pollen 6.10 out of 12
PM2.5 Good
Flu Activity Not available.
METAR KPIH 302053Z 24019G26KT 10SM SCT022 BKN035 BKN100 13/08 A2991 RMK AO2 PK WND 24029/1957 SLP109 T01330083 58009

More Conditions Fewer Conditions

Pressure 29.86 in
Visibility 10.0 miles
Clouds Scattered Clouds 2200 ft
Mostly Cloudy 3500 ft
Mostly Cloudy 10000 ft
Windchill 43 °F
Dew Point 42 °F
Humidity 90%
Rainfall 0.46 in
Snow Depth 0 in , 0 in , 0 in
UV 3 out of 12
Pollen 6.10 out of 12
PM2.5 Good
Flu Activity Not available.
METAR KPIH 302053Z 24019G26KT 10SM SCT022 BKN035 BKN100 13/08 A2991 RMK AO2 PK WND 24029/1957 SLP109 T01330083 58009

More Conditions Fewer Conditions

10-Day Weather Forecast

Almanac

Astronomy

Sep. 30, 2014 Rise Set
Actual Time 7:26 AM MDT 7:13 PM MDT
Civil Twilight 6:58 AM MDT 7:41 PM MDT
Nautical Twilight 6:25 AM MDT 8:13 PM MDT
Astronomical Twilight 5:52 AM MDT 8:46 PM MDT
Moon 1:43 PM MDT 11:41 PM MDT
Length of Visible Light 12h 42m
Length of Day
11h 46m
Tomorrow will be 2m 50s shorter.
Waxing Crescent, 40% of the Moon is Illuminated
Today
Waxing Crescent
Oct 1
First Quarter
Oct 8
Full
Oct 15
Last Quarter
Oct 23
New

Today's Extremes

State Highs State Lows

Community

WunderPhotos

Upload Photos

1,757,755 photos uploaded!

Nearby

Air Quality

  Air Quality AQ Index Pollutant
Yesterday Good
PM2.5
Current Good
PM2.5
Tuesday Good
PM2.5
Wednesday Good
PM2.5
Thursday Good
PM2.5

Snow Depth

Station Depth Elevation
Oxford Spring 0 in 6740 ft
Vienna Mine 0 in 8960 ft
Galena 0 in 7440 ft
Crab Creek 113 in 6860 ft
Mosquito Ridge 0 in 5200 ft

Earthquake Activity

City Distance Mag. Time & Date
No recent earthquake activity has been reported nearby.
Minimum magnitude displayed is 2.5.

Coastal Water Temperatures

Place Temperature
No Stations Reporting

Nearby Weather Stations